sensor_id;sensor_type;location;lat;lon;timestamp;pressure;altitude;pressure_sealevel;temperature;humidity
65131;BME280;51709;54.912;8.316;2023-04-01T00:05:10;99545.25;;;8.55;82.62
65131;BME280;51709;54.912;8.316;2023-04-01T00:10:31;99568.69;;;8.41;82.75
65131;BME280;51709;54.912;8.316;2023-04-01T00:15:55;99559.69;;;8.29;82.93
65131;BME280;51709;54.912;8.316;2023-04-01T00:21:18;99568.44;;;8.22;82.96
65131;BME280;51709;54.912;8.316;2023-04-01T00:26:39;99573.88;;;8.11;82.99
65131;BME280;51709;54.912;8.316;2023-04-01T00:32:02;99574.19;;;8.00;83.24
65131;BME280;51709;54.912;8.316;2023-04-01T00:37:23;99581.41;;;7.87;83.39
65131;BME280;51709;54.912;8.316;2023-04-01T00:42:43;99587.69;;;7.77;83.31
65131;BME280;51709;54.912;8.316;2023-04-01T00:48:09;99589.66;;;7.67;83.38
65131;BME280;51709;54.912;8.316;2023-04-01T00:53:32;99591.66;;;7.57;83.43
65131;BME280;51709;54.912;8.316;2023-04-01T00:58:58;99592.69;;;7.50;83.50
65131;BME280;51709;54.912;8.316;2023-04-01T01:04:28;99600.69;;;7.37;83.55
65131;BME280;51709;54.912;8.316;2023-04-01T01:15:21;99605.38;;;7.23;83.69
65131;BME280;51709;54.912;8.316;2023-04-01T01:26:49;99629.28;;;7.19;83.46
65131;BME280;51709;54.912;8.316;2023-04-01T01:37:56;99630.69;;;6.98;83.76
65131;BME280;51709;54.912;8.316;2023-04-01T01:43:24;99644.44;;;6.92;83.69
65131;BME280;51709;54.912;8.316;2023-04-01T01:48:46;99645.34;;;6.89;83.65
65131;BME280;51709;54.912;8.316;2023-04-01T01:54:12;99643.84;;;6.81;83.81
65131;BME280;51709;54.912;8.316;2023-04-01T01:59:35;99658.44;;;6.75;83.61
65131;BME280;51709;54.912;8.316;2023-04-01T02:04:58;99676.38;;;6.72;83.69
65131;BME280;51709;54.912;8.316;2023-04-01T02:10:21;99668.03;;;6.66;83.67
65131;BME280;51709;54.912;8.316;2023-04-01T02:15:48;99675.03;;;6.57;83.79
65131;BME280;51709;54.912;8.316;2023-04-01T02:21:12;99686.91;;;6.57;83.60
65131;BME280;51709;54.912;8.316;2023-04-01T02:26:34;99686.97;;;6.55;83.65
65131;BME280;51709;54.912;8.316;2023-04-01T02:31:55;99703.22;;;6.50;83.71
65131;BME280;51709;54.912;8.316;2023-04-01T02:37:16;99710.94;;;6.46;83.69
65131;BME280;51709;54.912;8.316;2023-04-01T02:42:37;99724.59;;;6.44;83.55
65131;BME280;51709;54.912;8.316;2023-04-01T02:47:58;99728.88;;;6.42;83.59
65131;BME280;51709;54.912;8.316;2023-04-01T02:53:20;99745.91;;;6.40;83.64
65131;BME280;51709;54.912;8.316;2023-04-01T02:58:41;99752.03;;;6.31;83.68
65131;BME280;51709;54.912;8.316;2023-04-01T03:04:01;99750.47;;;6.25;83.67
65131;BME280;51709;54.912;8.316;2023-04-01T03:09:22;99754.88;;;6.17;83.71
65131;BME280;51709;54.912;8.316;2023-04-01T03:14:43;99769.59;;;6.04;83.86
65131;BME280;51709;54.912;8.316;2023-04-01T03:20:05;99765.50;;;5.94;83.86
65131;BME280;51709;54.912;8.316;2023-04-01T03:25:25;99778.31;;;5.89;84.06
65131;BME280;51709;54.912;8.316;2023-04-01T03:30:47;99784.34;;;5.83;83.86
65131;BME280;51709;54.912;8.316;2023-04-01T03:36:08;99802.25;;;5.79;83.78
65131;BME280;51709;54.912;8.316;2023-04-01T03:41:29;99807.47;;;5.71;83.94
65131;BME280;51709;54.912;8.316;2023-04-01T03:46:52;99818.63;;;5.65;83.79
65131;BME280;51709;54.912;8.316;2023-04-01T03:52:13;99817.88;;;5.60;83.89
65131;BME280;51709;54.912;8.316;2023-04-01T03:57:34;99829.81;;;5.55;84.02
65131;BME280;51709;54.912;8.316;2023-04-01T04:03:06;99840.06;;;5.52;83.82
65131;BME280;51709;54.912;8.316;2023-04-01T04:08:28;99844.34;;;5.50;83.82
65131;BME280;51709;54.912;8.316;2023-04-01T04:13:50;99841.88;;;5.44;83.63
65131;BME280;51709;54.912;8.316;2023-04-01T04:19:11;99859.75;;;5.40;83.75
65131;BME280;51709;54.912;8.316;2023-04-01T04:24:31;99869.09;;;5.40;83.76
65131;BME280;51709;54.912;8.316;2023-04-01T04:29:58;99869.94;;;5.40;83.60
65131;BME280;51709;54.912;8.316;2023-04-01T04:35:19;99880.19;;;5.34;83.65
65131;BME280;51709;54.912;8.316;2023-04-01T04:40:41;99893.84;;;5.29;83.63
65131;BME280;51709;54.912;8.316;2023-04-01T04:46:09;99903.31;;;5.19;83.78
65131;BME280;51709;54.912;8.316;2023-04-01T04:51:31;99911.00;;;5.16;83.67
65131;BME280;51709;54.912;8.316;2023-04-01T04:56:54;99931.38;;;5.13;83.68
65131;BME280;51709;54.912;8.316;2023-04-01T05:02:17;99936.50;;;5.11;83.42
65131;BME280;51709;54.912;8.316;2023-04-01T05:07:37;99944.13;;;5.09;83.52
65131;BME280;51709;54.912;8.316;2023-04-01T05:12:58;99951.69;;;5.14;83.25
65131;BME280;51709;54.912;8.316;2023-04-01T05:18:19;99965.28;;;5.13;83.42
65131;BME280;51709;54.912;8.316;2023-04-01T05:23:40;99982.25;;;5.13;83.09
65131;BME280;51709;54.912;8.316;2023-04-01T05:29:01;99966.19;;;5.09;83.14
65131;BME280;51709;54.912;8.316;2023-04-01T05:34:22;99988.25;;;5.07;83.09
65131;BME280;51709;54.912;8.316;2023-04-01T05:39:43;99990.69;;;5.13;82.92
65131;BME280;51709;54.912;8.316;2023-04-01T05:45:05;100006.69;;;5.23;82.77
65131;BME280;51709;54.912;8.316;2023-04-01T05:50:44;100017.56;;;5.36;82.45
65131;BME280;51709;54.912;8.316;2023-04-01T05:56:05;100021.84;;;5.34;82.54
65131;BME280;51709;54.912;8.316;2023-04-01T06:01:31;100036.88;;;5.51;82.27
65131;BME280;51709;54.912;8.316;2023-04-01T06:06:51;100044.44;;;5.57;82.01
65131;BME280;51709;54.912;8.316;2023-04-01T06:12:29;100057.03;;;5.66;82.03
65131;BME280;51709;54.912;8.316;2023-04-01T06:18:18;100062.72;;;5.85;81.83
65131;BME280;51709;54.912;8.316;2023-04-01T06:23:54;100065.25;;;5.87;81.73
65131;BME280;51709;54.912;8.316;2023-04-01T06:29:48;100066.19;;;5.80;81.88
65131;BME280;51709;54.912;8.316;2023-04-01T06:46:46;100099.91;;;5.29;82.65
65131;BME280;51709;54.912;8.316;2023-04-01T06:52:40;100112.75;;;5.19;82.72
65131;BME280;51709;54.912;8.316;2023-04-01T06:58:27;100109.44;;;5.09;82.81
65131;BME280;51709;54.912;8.316;2023-04-01T07:04:02;100121.38;;;5.03;82.67
65131;BME280;51709;54.912;8.316;2023-04-01T07:09:35;100131.53;;;5.03;82.68
65131;BME280;51709;54.912;8.316;2023-04-01T07:15:44;100143.44;;;5.01;82.71
65131;BME280;51709;54.912;8.316;2023-04-01T07:21:13;100161.19;;;5.07;82.09
65131;BME280;51709;54.912;8.316;2023-04-01T07:26:38;100162.84;;;5.11;82.11
65131;BME280;51709;54.912;8.316;2023-04-01T07:32:32;100167.94;;;5.09;81.79
65131;BME280;51709;54.912;8.316;2023-04-01T07:38:15;100191.63;;;5.13;81.75
65131;BME280;51709;54.912;8.316;2023-04-01T08:06:54;100226.09;;;6.25;79.82
65131;BME280;51709;54.912;8.316;2023-04-01T08:18:58;100252.78;;;6.61;79.32
65131;BME280;51709;54.912;8.316;2023-04-01T08:24:42;100258.75;;;6.62;79.42
65131;BME280;51709;54.912;8.316;2023-04-01T08:30:28;100264.69;;;6.59;79.59
65131;BME280;51709;54.912;8.316;2023-04-01T08:35:56;100285.09;;;6.59;79.71
65131;BME280;51709;54.912;8.316;2023-04-01T09:10:27;100325.25;;;6.45;79.37
65131;BME280;51709;54.912;8.316;2023-04-01T09:22:15;100337.84;;;6.56;78.69
65131;BME280;51709;54.912;8.316;2023-04-01T09:28:08;100353.22;;;6.48;78.83
65131;BME280;51709;54.912;8.316;2023-04-01T09:45:58;100387.28;;;6.42;78.49
65131;BME280;51709;54.912;8.316;2023-04-01T09:58:02;100407.81;;;6.28;78.62
65131;BME280;51709;54.912;8.316;2023-04-01T10:23:18;100461.94;;;6.55;77.49
65131;BME280;51709;54.912;8.316;2023-04-01T10:35:03;100474.84;;;6.38;77.74
65131;BME280;51709;54.912;8.316;2023-04-01T10:40:38;100484.25;;;6.31;77.58
65131;BME280;51709;54.912;8.316;2023-04-01T10:58:43;100522.47;;;6.33;77.34
65131;BME280;51709;54.912;8.316;2023-04-01T11:11:27;100522.31;;;6.52;76.67
65131;BME280;51709;54.912;8.316;2023-04-01T11:28:43;100545.59;;;6.10;77.22
65131;BME280;51709;54.912;8.316;2023-04-01T11:40:14;100560.06;;;6.03;77.03
65131;BME280;51709;54.912;8.316;2023-04-01T11:46:08;100565.09;;;6.15;76.47
65131;BME280;51709;54.912;8.316;2023-04-01T11:51:43;100570.22;;;6.06;76.52
65131;BME280;51709;54.912;8.316;2023-04-01T11:58:05;100575.41;;;5.91;76.73
65131;BME280;51709;54.912;8.316;2023-04-01T12:20:30;100620.44;;;5.87;76.24
65131;BME280;51709;54.912;8.316;2023-04-01T12:31:25;100624.13;;;6.70;73.93
65131;BME280;51709;54.912;8.316;2023-04-01T13:00:12;100651.09;;;6.99;73.75
65131;BME280;51709;54.912;8.316;2023-04-01T13:05:42;100666.41;;;6.98;73.71
65131;BME280;51709;54.912;8.316;2023-04-01T13:11:15;100678.31;;;6.96;73.73
65131;BME280;51709;54.912;8.316;2023-04-01T13:17:13;100685.16;;;6.92;73.76
65131;BME280;51709;54.912;8.316;2023-04-01T13:22:56;100690.31;;;6.86;73.94
65131;BME280;51709;54.912;8.316;2023-04-01T13:28:29;100698.81;;;6.83;73.83
65131;BME280;51709;54.912;8.316;2023-04-01T13:34:06;100709.16;;;6.66;74.21
65131;BME280;51709;54.912;8.316;2023-04-01T13:57:38;100738.28;;;6.29;74.36
65131;BME280;51709;54.912;8.316;2023-04-01T14:15:17;100764.28;;;6.87;72.54
65131;BME280;51709;54.912;8.316;2023-04-01T14:26:30;100773.53;;;7.04;72.12
65131;BME280;51709;54.912;8.316;2023-04-01T14:32:06;100803.25;;;7.09;71.67
65131;BME280;51709;54.912;8.316;2023-04-01T14:37:56;100812.63;;;7.11;71.75
65131;BME280;51709;54.912;8.316;2023-04-01T14:43:42;100827.97;;;7.03;71.97
65131;BME280;51709;54.912;8.316;2023-04-01T14:49:23;100826.25;;;7.00;71.98
65131;BME280;51709;54.912;8.316;2023-04-01T14:54:51;100839.88;;;7.04;71.75
65131;BME280;51709;54.912;8.316;2023-04-01T15:00:14;100836.44;;;7.06;71.71
65131;BME280;51709;54.912;8.316;2023-04-01T15:11:48;100860.09;;;7.33;70.78
65131;BME280;51709;54.912;8.316;2023-04-01T15:23:09;100875.19;;;8.48;68.29
65131;BME280;51709;54.912;8.316;2023-04-01T15:28:39;100883.13;;;8.25;68.20
65131;BME280;51709;54.912;8.316;2023-04-01T15:51:19;100915.00;;;9.38;65.29
65131;BME280;51709;54.912;8.316;2023-04-01T16:25:39;100969.41;;;11.43;63.07
65131;BME280;51709;54.912;8.316;2023-04-01T16:31:13;100977.91;;;11.05;64.09
65131;BME280;51709;54.912;8.316;2023-04-01T16:36:43;100986.91;;;10.34;65.94
65131;BME280;51709;54.912;8.316;2023-04-01T16:47:32;101019.16;;;9.39;67.25
65131;BME280;51709;54.912;8.316;2023-04-01T16:58:56;101043.84;;;8.67;67.90
65131;BME280;51709;54.912;8.316;2023-04-01T17:10:06;101063.78;;;8.25;67.95
65131;BME280;51709;54.912;8.316;2023-04-01T17:49:53;101155.41;;;7.31;66.91
65131;BME280;51709;54.912;8.316;2023-04-01T18:01:17;101185.19;;;7.24;66.45
65131;BME280;51709;54.912;8.316;2023-04-01T18:12:38;101209.88;;;6.90;66.90
65131;BME280;51709;54.912;8.316;2023-04-01T18:23:51;101250.63;;;6.48;67.37
65131;BME280;51709;54.912;8.316;2023-04-01T18:40:20;101286.13;;;6.01;67.48
65131;BME280;51709;54.912;8.316;2023-04-01T18:46:55;101300.47;;;5.87;67.53
65131;BME280;51709;54.912;8.316;2023-04-01T18:51:54;101310.56;;;5.71;67.69
65131;BME280;51709;54.912;8.316;2023-04-01T18:57:18;101323.25;;;5.62;67.63
65131;BME280;51709;54.912;8.316;2023-04-01T19:02:44;101331.66;;;5.53;67.54
65131;BME280;51709;54.912;8.316;2023-04-01T19:13:54;101356.09;;;5.34;67.53
65131;BME280;51709;54.912;8.316;2023-04-01T19:19:40;101356.88;;;5.29;67.54
65131;BME280;51709;54.912;8.316;2023-04-01T19:31:15;101372.03;;;5.16;67.43
65131;BME280;51709;54.912;8.316;2023-04-01T19:36:50;101388.97;;;5.13;67.52
65131;BME280;51709;54.912;8.316;2023-04-01T19:42:50;101399.16;;;5.11;67.42
65131;BME280;51709;54.912;8.316;2023-04-01T19:48:31;101414.34;;;5.06;67.35
65131;BME280;51709;54.912;8.316;2023-04-01T19:54:29;101417.66;;;5.01;67.42
65131;BME280;51709;54.912;8.316;2023-04-01T20:00:05;101432.88;;;4.94;67.35
65131;BME280;51709;54.912;8.316;2023-04-01T20:11:38;101456.53;;;4.89;67.34
65131;BME280;51709;54.912;8.316;2023-04-01T20:17:13;101470.03;;;4.85;67.34
65131;BME280;51709;54.912;8.316;2023-04-01T20:52:45;101534.19;;;4.63;67.42
65131;BME280;51709;54.912;8.316;2023-04-01T21:09:26;101555.25;;;4.56;67.46
65131;BME280;51709;54.912;8.316;2023-04-01T21:15:02;101569.66;;;4.56;67.51
65131;BME280;51709;54.912;8.316;2023-04-01T21:26:11;101589.09;;;4.54;67.31
65131;BME280;51709;54.912;8.316;2023-04-01T21:37:55;101594.94;;;4.48;67.53
65131;BME280;51709;54.912;8.316;2023-04-01T21:54:54;101633.00;;;4.43;67.49
65131;BME280;51709;54.912;8.316;2023-04-01T22:00:32;101641.47;;;4.44;67.29
65131;BME280;51709;54.912;8.316;2023-04-01T22:05:59;101649.00;;;4.39;67.49
65131;BME280;51709;54.912;8.316;2023-04-01T22:23:13;101682.06;;;4.39;67.37
65131;BME280;51709;54.912;8.316;2023-04-01T22:40:20;101713.34;;;4.37;67.31
65131;BME280;51709;54.912;8.316;2023-04-01T22:51:18;101717.53;;;4.35;67.33
65131;BME280;51709;54.912;8.316;2023-04-01T22:56:46;101732.00;;;4.37;67.35
65131;BME280;51709;54.912;8.316;2023-04-01T23:02:15;101736.19;;;4.35;67.28
65131;BME280;51709;54.912;8.316;2023-04-01T23:07:56;101751.50;;;4.38;67.29
65131;BME280;51709;54.912;8.316;2023-04-01T23:13:34;101775.16;;;4.36;67.42
65131;BME280;51709;54.912;8.316;2023-04-01T23:25:15;101782.72;;;4.32;67.44
65131;BME280;51709;54.912;8.316;2023-04-01T23:36:14;101797.81;;;4.25;67.47
65131;BME280;51709;54.912;8.316;2023-04-01T23:41:35;101811.38;;;4.25;67.58
65131;BME280;51709;54.912;8.316;2023-04-01T23:46:57;101816.41;;;4.24;67.47
65131;BME280;51709;54.912;8.316;2023-04-01T23:52:27;101823.13;;;4.20;67.50
